Time;durP1;ratioP1;P1;durP2;ratioP2;P2;SDS_P1;SDS_P2;PMS_P1;PMS_P2;Temp;Humidity;BMP_temperature;BMP_pressure;BME280_temperature;BME280_humidity;BME280_pressure;Samples;Min_cycle;Max_cycle;Signal;HPM_P1;HPM_P2
2023/07/08 00:01:37;;;;;;;9.25;6.47;;;16.80;99.90;;;;;;4998979;28;89150;-41
2023/07/08 00:04:04;;;;;;;7.90;6.65;;;16.80;99.90;;;;;;4998348;28;89477;-37
2023/07/08 00:06:30;;;;;;;6.73;6.00;;;16.70;99.90;;;;;;4998473;28;90998;-38
2023/07/08 00:08:56;;;;;;;10.00;7.10;;;16.70;99.90;;;;;;4999222;28;89508;-36
2023/07/08 00:11:22;;;;;;;7.55;6.85;;;16.70;99.90;;;;;;4999090;28;89553;-34
2023/07/08 00:13:48;;;;;;;7.55;6.78;;;16.60;99.90;;;;;;4998754;28;89833;-32
2023/07/08 00:16:16;;;;;;;9.55;6.22;;;16.60;99.90;;;;;;4998168;28;90160;-38
2023/07/08 00:18:42;;;;;;;10.55;6.68;;;16.50;99.90;;;;;;4999501;28;89710;-39
2023/07/08 00:21:15;;;;;;;8.13;6.72;;;16.50;99.90;;;;;;4998616;28;88100;-37
2023/07/08 00:23:44;;;;;;;9.27;6.22;;;16.50;99.90;;;;;;4999111;28;90785;-33
2023/07/08 00:26:33;;;;;;;8.40;6.57;;;16.40;99.90;;;;;;4977852;28;91130;-35
2023/07/08 00:28:59;;;;;;;7.32;6.57;;;16.40;99.90;;;;;;4996071;28;89437;-36
2023/07/08 00:31:25;;;;;;;8.75;6.97;;;16.40;99.90;;;;;;4997875;28;89094;-31
2023/07/08 00:33:55;;;;;;;13.35;7.13;;;16.30;99.90;;;;;;4999116;28;90557;-34
2023/07/08 00:36:21;;;;;;;8.23;5.80;;;16.40;99.90;;;;;;4998487;28;91723;-36
2023/07/08 00:38:47;;;;;;;10.18;7.32;;;16.40;99.90;;;;;;4998517;28;91016;-33
2023/07/08 00:41:38;;;;;;;9.90;7.25;;;16.30;99.90;;;;;;4997061;28;88320;-33
2023/07/08 00:44:04;;;;;;;7.53;6.35;;;16.30;99.90;;;;;;4998384;28;91661;-35
2023/07/08 00:46:29;;;;;;;9.93;7.53;;;16.20;99.90;;;;;;4998372;28;90119;-33
2023/07/08 00:49:07;;;;;;;9.15;6.68;;;16.10;99.90;;;;;;4999367;28;89623;-33
2023/07/08 00:51:40;;;;;;;13.65;7.47;;;16.10;99.90;;;;;;4997537;28;88205;-34
2023/07/08 00:54:14;;;;;;;8.43;6.75;;;16.10;99.90;;;;;;4998522;28;89641;-33
2023/07/08 00:56:43;;;;;;;11.30;7.07;;;16.20;99.90;;;;;;4997687;28;89709;-32
2023/07/08 00:59:19;;;;;;;8.82;6.90;;;16.20;99.90;;;;;;4998556;28;90672;-33
2023/07/08 01:01:45;;;;;;;11.40;7.15;;;16.30;99.90;;;;;;4998076;28;89511;-39
2023/07/08 01:04:28;;;;;;;8.60;7.70;;;16.20;99.90;;;;;;4997716;28;89972;-35
2023/07/08 01:06:57;;;;;;;8.38;7.55;;;16.10;99.90;;;;;;4986774;28;89933;-37
2023/07/08 01:09:38;;;;;;;7.18;6.43;;;16.10;99.90;;;;;;4997738;28;89938;-35
2023/07/08 01:12:08;;;;;;;13.85;6.95;;;16.00;99.90;;;;;;4998732;28;89358;-37
2023/07/08 01:14:37;;;;;;;8.30;7.60;;;16.00;99.90;;;;;;4997119;28;89765;-35
2023/07/08 01:17:03;;;;;;;7.40;6.68;;;15.90;99.90;;;;;;5000406;28;89710;-38
2023/07/08 01:19:33;;;;;;;9.93;8.90;;;15.90;99.90;;;;;;5000864;28;89841;-39
2023/07/08 01:22:06;;;;;;;10.82;8.52;;;15.80;99.90;;;;;;5001870;28;88405;-36
2023/07/08 01:24:34;;;;;;;8.93;7.00;;;15.80;99.90;;;;;;4984012;28;90387;-34
2023/07/08 01:27:03;;;;;;;9.40;8.50;;;15.80;99.90;;;;;;5000408;28;91015;-35
2023/07/08 01:29:29;;;;;;;9.75;8.70;;;15.70;99.90;;;;;;5001325;28;90421;-35
2023/07/08 01:32:02;;;;;;;7.95;6.95;;;15.70;99.90;;;;;;5001113;28;90249;-35
2023/07/08 01:34:32;;;;;;;10.95;7.82;;;15.70;99.90;;;;;;5001337;28;90036;-35
2023/07/08 01:37:00;;;;;;;10.77;7.50;;;15.60;99.90;;;;;;5001087;28;89843;-37
2023/07/08 01:39:27;;;;;;;;;;;15.70;99.90;;;;;;5001404;28;89359;-34
2023/07/08 01:41:54;;;;;;;9.57;8.02;;;15.60;99.90;;;;;;5001961;28;90341;-35
2023/07/08 01:44:28;;;;;;;9.13;7.90;;;15.60;99.90;;;;;;5001268;28;89666;-33
2023/07/08 01:46:57;;;;;;;8.90;7.47;;;15.60;99.90;;;;;;5001375;28;89493;-32
2023/07/08 01:49:24;;;;;;;11.82;8.40;;;15.60;99.90;;;;;;5001773;28;89223;-32
2023/07/08 01:51:50;;;;;;;8.55;7.82;;;15.70;99.90;;;;;;4999556;28;88763;-32
2023/07/08 01:54:16;;;;;;;11.18;8.38;;;15.60;99.90;;;;;;5001073;28;89877;-42
2023/07/08 01:56:42;;;;;;;10.75;7.85;;;15.60;99.90;;;;;;5000607;28;90346;-35
2023/07/08 01:59:07;;;;;;;8.73;7.93;;;15.60;99.90;;;;;;5001065;28;88891;-35
2023/07/08 02:01:33;;;;;;;10.73;8.43;;;15.60;99.90;;;;;;4997598;28;89229;-31
2023/07/08 02:03:59;;;;;;;10.57;8.02;;;15.60;99.90;;;;;;5001054;28;90982;-33
2023/07/08 02:06:24;;;;;;;9.52;8.07;;;15.60;99.90;;;;;;5000159;28;90303;-35
2023/07/08 02:08:50;;;;;;;9.15;8.05;;;15.60;99.90;;;;;;5000884;28;89695;-37
2023/07/08 02:11:16;;;;;;;9.25;8.38;;;15.60;99.90;;;;;;5000860;28;89423;-32
2023/07/08 02:13:42;;;;;;;9.63;8.45;;;15.50;99.90;;;;;;5001404;28;90598;-35
2023/07/08 02:16:08;;;;;;;8.77;7.43;;;15.50;99.90;;;;;;4999011;28;90673;-34
2023/07/08 02:18:33;;;;;;;10.82;8.63;;;15.40;99.90;;;;;;5000781;28;90199;-37
2023/07/08 02:20:59;;;;;;;11.40;8.45;;;15.40;99.90;;;;;;4999726;28;88705;-37
2023/07/08 02:23:25;;;;;;;10.02;7.72;;;15.30;99.90;;;;;;5000246;28;88939;-38
2023/07/08 02:25:55;;;;;;;9.30;8.27;;;15.30;99.90;;;;;;4982364;28;91259;-32
2023/07/08 02:28:21;;;;;;;15.27;9.38;;;15.30;99.90;;;;;;5000352;28;91240;-35
2023/07/08 02:30:47;;;;;;;11.65;8.77;;;15.30;99.90;;;;;;4999946;28;89164;-36
2023/07/08 02:33:14;;;;;;;13.25;8.63;;;15.20;99.90;;;;;;5000997;28;90587;-33
2023/07/08 02:35:40;;;;;;;11.43;8.13;;;15.20;99.90;;;;;;5000116;28;89367;-33
2023/07/08 02:38:05;;;;;;;9.18;8.02;;;15.30;99.90;;;;;;5000145;28;88937;-33
2023/07/08 02:40:31;;;;;;;9.32;8.43;;;15.20;99.90;;;;;;5000328;28;89291;-33
2023/07/08 02:42:57;;;;;;;11.70;9.15;;;15.20;99.90;;;;;;4999592;28;90535;-34
2023/07/08 02:45:22;;;;;;;10.88;9.82;;;15.20;99.90;;;;;;4999941;28;90320;-37
2023/07/08 02:47:48;;;;;;;9.75;8.13;;;15.10;99.90;;;;;;5000799;28;89658;-31
2023/07/08 02:50:14;;;;;;;12.48;9.02;;;15.10;99.90;;;;;;5000196;28;89411;-35
2023/07/08 02:52:40;;;;;;;10.23;9.25;;;15.20;99.90;;;;;;5000992;28;90180;-32
2023/07/08 02:55:06;;;;;;;10.00;8.88;;;15.20;99.90;;;;;;4999675;28;89892;-31
2023/07/08 02:57:31;;;;;;;11.75;9.77;;;15.10;99.90;;;;;;5000353;28;90057;-33
2023/07/08 02:59:57;;;;;;;10.27;8.88;;;15.00;99.90;;;;;;4981466;28;88688;-34
2023/07/08 03:02:23;;;;;;;14.10;9.27;;;15.00;99.90;;;;;;5000589;28;90827;-35
2023/07/08 03:04:49;;;;;;;10.93;9.38;;;14.90;99.90;;;;;;5000240;28;90596;-32
2023/07/08 03:07:16;;;;;;;10.52;8.88;;;14.90;99.90;;;;;;5000085;28;90952;-36
2023/07/08 03:09:42;;;;;;;12.23;9.65;;;14.90;99.90;;;;;;4999828;28;89116;-38
2023/07/08 03:12:10;;;;;;;13.82;8.70;;;14.90;99.90;;;;;;5000416;28;90922;-32
2023/07/08 03:14:36;;;;;;;10.77;9.68;;;14.90;99.90;;;;;;5000173;28;90806;-36
2023/07/08 03:17:03;;;;;;;10.60;9.30;;;14.90;99.90;;;;;;5000457;28;89436;-36
2023/07/08 03:19:28;;;;;;;11.50;10.35;;;14.80;99.90;;;;;;5000330;28;88183;-39
2023/07/08 03:21:54;;;;;;;9.70;8.70;;;14.90;99.90;;;;;;4999140;28;89983;-39
2023/07/08 03:24:20;;;;;;;10.98;9.88;;;14.90;99.90;;;;;;4999320;28;89829;-35
2023/07/08 03:26:46;;;;;;;10.30;8.98;;;14.90;99.90;;;;;;4999681;28;90878;-39
2023/07/08 03:29:17;;;;;;;10.38;9.30;;;15.00;99.90;;;;;;4999426;28;89490;-40
2023/07/08 03:31:44;;;;;;;12.45;9.27;;;14.90;99.90;;;;;;4999145;28;89846;-36
2023/07/08 03:34:15;;;;;;;14.85;9.77;;;14.90;99.90;;;;;;4999365;28;90148;-41
2023/07/08 03:36:50;;;;;;;12.70;9.70;;;14.90;99.90;;;;;;4999320;28;89086;-39
2023/07/08 03:39:17;;;;;;;12.10;11.02;;;14.90;99.90;;;;;;4978285;28;90028;-32
2023/07/08 03:41:43;;;;;;;11.90;10.40;;;14.90;99.90;;;;;;4994599;28;89955;-37
2023/07/08 03:44:08;;;;;;;12.18;10.05;;;14.90;99.90;;;;;;4998870;28;89583;-35
2023/07/08 03:46:34;;;;;;;11.15;10.05;;;14.90;99.90;;;;;;4998781;28;89996;-38
2023/07/08 03:49:00;;;;;;;10.57;9.48;;;14.90;99.90;;;;;;4998944;28;88402;-36
2023/07/08 03:51:31;;;;;;;10.93;9.93;;;15.00;99.90;;;;;;4999322;28;90589;-36
2023/07/08 03:53:57;;;;;;;14.05;10.77;;;15.00;99.90;;;;;;4999521;28;91069;-34
2023/07/08 03:56:23;;;;;;;13.10;11.23;;;14.90;99.90;;;;;;4998257;28;90746;-35
2023/07/08 03:58:49;;;;;;;11.38;10.27;;;14.90;99.90;;;;;;4981204;28;88228;-33
2023/07/08 04:01:17;;;;;;;15.20;10.10;;;15.00;99.90;;;;;;4998260;28;90303;-35
2023/07/08 04:03:43;;;;;;;13.80;12.05;;;15.00;99.90;;;;;;4998922;28;89229;-35
2023/07/08 04:06:09;;;;;;;12.18;10.88;;;15.00;99.90;;;;;;4998060;28;89756;-33
2023/07/08 04:08:35;;;;;;;14.27;10.10;;;15.00;99.90;;;;;;4999829;28;89409;-36
2023/07/08 04:11:00;;;;;;;10.70;9.40;;;15.00;99.90;;;;;;4997775;28;90316;-34
2023/07/08 04:13:26;;;;;;;11.20;10.13;;;15.00;99.90;;;;;;4998839;28;89791;-41
2023/07/08 04:15:56;;;;;;;12.40;10.95;;;15.00;99.90;;;;;;4997523;28;89739;-36
2023/07/08 04:18:21;;;;;;;11.73;10.52;;;15.00;99.90;;;;;;4997987;28;90566;-34
2023/07/08 04:20:52;;;;;;;11.27;9.98;;;15.00;99.90;;;;;;4997742;28;90087;-36
2023/07/08 04:23:24;;;;;;;11.38;10.20;;;15.10;99.90;;;;;;4997822;28;89148;-34
2023/07/08 04:25:53;;;;;;;14.73;11.25;;;15.10;99.90;;;;;;4997788;28;90025;-36
2023/07/08 04:28:19;;;;;;;15.10;10.70;;;15.10;99.90;;;;;;4998832;28;89935;-35
2023/07/08 04:30:45;;;;;;;12.32;10.90;;;15.10;99.90;;;;;;4997437;28;90150;-40
2023/07/08 04:33:12;;;;;;;11.70;10.52;;;15.10;99.90;;;;;;4998610;28;90113;-34
2023/07/08 04:35:39;;;;;;;11.13;9.88;;;15.30;99.90;;;;;;4998083;28;89640;-37
2023/07/08 04:38:09;;;;;;;12.73;11.48;;;15.30;99.90;;;;;;4998745;28;88978;-36
2023/07/08 04:40:39;;;;;;;11.98;10.75;;;15.40;99.90;;;;;;4996903;28;90476;-36
2023/07/08 04:43:06;;;;;;;12.43;11.20;;;15.40;99.90;;;;;;5032292;22;89802;-34
2023/07/08 04:45:32;;;;;;;13.15;11.80;;;15.60;99.90;;;;;;5006100;27;90517;-40
2023/07/08 04:47:58;;;;;;;11.88;10.52;;;15.70;99.90;;;;;;5004353;27;89701;-35
2023/07/08 04:50:24;;;;;;;12.40;11.18;;;15.80;99.90;;;;;;5010144;28;90524;-36
2023/07/08 04:52:50;;;;;;;11.85;10.70;;;15.80;99.90;;;;;;4998554;27;90008;-36
2023/07/08 04:55:15;;;;;;;12.65;11.18;;;16.00;99.90;;;;;;5017107;28;88995;-36
2023/07/08 04:57:41;;;;;;;12.75;10.40;;;16.10;99.90;;;;;;5018447;28;88768;-39
2023/07/08 05:00:12;;;;;;;15.20;11.90;;;16.20;99.90;;;;;;5003506;28;90736;-36
2023/07/08 05:02:38;;;;;;;13.68;12.05;;;16.30;99.90;;;;;;5017616;28;89450;-36
2023/07/08 05:05:04;;;;;;;13.45;11.13;;;16.40;99.90;;;;;;5004030;28;89254;-33
2023/07/08 05:07:30;;;;;;;11.60;10.50;;;16.50;99.90;;;;;;5004362;27;88578;-35
2023/07/08 05:09:56;;;;;;;12.38;11.10;;;16.60;99.90;;;;;;4998157;28;92048;-36
2023/07/08 05:12:21;;;;;;;11.38;10.32;;;16.70;99.90;;;;;;5010756;27;89296;-36
2023/07/08 05:14:47;;;;;;;11.60;10.60;;;16.80;99.90;;;;;;4997666;28;89570;-33
2023/07/08 05:17:12;;;;;;;15.65;11.90;;;16.90;99.90;;;;;;4997625;27;90335;-39
2023/07/08 05:19:40;;;;;;;11.63;10.52;;;17.10;99.90;;;;;;4979734;28;92689;-37
2023/07/08 05:22:06;;;;;;;11.85;10.68;;;17.20;99.90;;;;;;4996280;27;89691;-39
2023/07/08 05:24:32;;;;;;;12.65;11.18;;;17.30;99.90;;;;;;4998080;28;88467;-33
2023/07/08 05:26:58;;;;;;;12.63;11.38;;;17.40;99.90;;;;;;5011513;28;88414;-35
2023/07/08 05:29:24;;;;;;;12.60;11.45;;;17.50;99.90;;;;;;5017093;28;90313;-35
2023/07/08 05:31:49;;;;;;;11.80;10.65;;;17.70;99.90;;;;;;5016016;28;90582;-36
2023/07/08 05:34:15;;;;;;;11.93;10.32;;;17.80;99.90;;;;;;5017003;28;91398;-34
2023/07/08 05:36:41;;;;;;;12.75;11.40;;;17.90;99.90;;;;;;5016211;27;88386;-35
2023/07/08 05:39:07;;;;;;;11.00;10.10;;;17.90;99.90;;;;;;5016259;28;90150;-35
2023/07/08 05:41:33;;;;;;;12.10;10.80;;;18.00;99.90;;;;;;5013856;27;89788;-33
2023/07/08 05:43:59;;;;;;;11.20;10.18;;;18.20;99.90;;;;;;5016465;27;90153;-39
2023/07/08 05:46:24;;;;;;;12.23;10.85;;;18.30;99.90;;;;;;5015039;28;89504;-35
2023/07/08 05:48:50;;;;;;;11.57;9.90;;;18.40;99.90;;;;;;5014558;27;90107;-36
2023/07/08 05:51:16;;;;;;;13.25;9.98;;;18.50;99.90;;;;;;5016049;27;89240;-34
2023/07/08 05:53:42;;;;;;;12.23;9.98;;;18.60;99.90;;;;;;5016056;27;89677;-35
2023/07/08 05:56:08;;;;;;;12.77;9.32;;;18.70;99.90;;;;;;5004748;27;90238;-40
2023/07/08 05:58:34;;;;;;;12.95;10.07;;;18.90;99.90;;;;;;4999185;27;89781;-37
2023/07/08 06:00:59;;;;;;;10.75;9.70;;;19.00;99.90;;;;;;4999230;28;89409;-33
2023/07/08 06:03:25;;;;;;;10.68;9.73;;;19.00;99.90;;;;;;5001640;27;89504;-40
2023/07/08 06:05:51;;;;;;;10.40;9.50;;;19.20;99.90;;;;;;5005125;27;88760;-37
2023/07/08 06:08:16;;;;;;;11.43;10.25;;;19.30;99.90;;;;;;5014978;27;90685;-37
2023/07/08 06:10:44;;;;;;;10.73;9.63;;;19.40;99.90;;;;;;5013906;28;89659;-35
2023/07/08 06:13:10;;;;;;;9.50;8.30;;;19.60;99.90;;;;;;5001196;27;90756;-33
2023/07/08 06:15:35;;;;;;;12.38;10.05;;;19.60;99.90;;;;;;5001774;28;89286;-36
2023/07/08 06:18:02;;;;;;;10.43;9.43;;;19.80;99.90;;;;;;5000354;28;90036;-34
2023/07/08 06:20:28;;;;;;;9.80;8.13;;;19.90;99.90;;;;;;5000115;27;90683;-40
2023/07/08 06:22:54;;;;;;;9.20;8.43;;;20.00;99.90;;;;;;5001516;27;90301;-35
2023/07/08 06:25:20;;;;;;;10.63;9.15;;;20.20;99.90;;;;;;5000658;28;88280;-37
2023/07/08 06:27:45;;;;;;;10.25;9.25;;;20.40;99.90;;;;;;5001373;28;90796;-34
2023/07/08 06:30:11;;;;;;;10.50;9.48;;;20.50;99.90;;;;;;5001430;27;89757;-34
2023/07/08 06:32:37;;;;;;;7.95;7.25;;;20.60;99.90;;;;;;5000576;27;89642;-34
2023/07/08 06:35:03;;;;;;;10.15;9.27;;;20.80;99.90;;;;;;5004420;28;89906;-34
2023/07/08 06:37:29;;;;;;;11.38;8.25;;;20.90;99.90;;;;;;5004840;28;89894;-33
2023/07/08 06:39:54;;;;;;;9.65;8.75;;;20.90;99.90;;;;;;5015219;27;89524;-38
2023/07/08 06:42:20;;;;;;;10.13;8.73;;;21.00;99.90;;;;;;5008212;28;90872;-35
2023/07/08 06:44:50;;;;;;;8.40;7.53;;;21.10;99.90;;;;;;5008969;28;90007;-38
2023/07/08 06:47:20;;;;;;;13.90;9.02;;;21.30;99.90;;;;;;5009342;28;90786;-33
2023/07/08 06:49:46;;;;;;;9.32;8.50;;;21.40;99.90;;;;;;5008548;28;89579;-34
2023/07/08 06:52:12;;;;;;;8.70;7.85;;;21.60;99.90;;;;;;5008845;27;89230;-37
2023/07/08 06:54:38;;;;;;;11.38;8.05;;;21.80;99.90;;;;;;5014393;28;89840;-34
2023/07/08 06:57:04;;;;;;;8.50;7.80;;;21.90;99.90;;;;;;4984631;28;92404;-40
2023/07/08 06:59:30;;;;;;;7.80;7.10;;;21.90;99.90;;;;;;4991437;28;90993;-37
2023/07/08 07:01:55;;;;;;;9.38;8.48;;;22.00;99.90;;;;;;5001232;28;89149;-36
2023/07/08 07:04:21;;;;;;;9.13;7.95;;;22.10;99.90;;;;;;5003260;27;89468;-38
2023/07/08 07:06:47;;;;;;;15.95;7.95;;;22.40;99.90;;;;;;5003413;28;90676;-36
2023/07/08 07:09:12;;;;;;;10.25;7.93;;;22.40;99.90;;;;;;4998242;28;91126;-34
2023/07/08 07:11:38;;;;;;;7.88;7.20;;;22.60;99.90;;;;;;5016078;27;90219;-35
2023/07/08 07:14:04;;;;;;;8.02;7.38;;;22.70;99.90;;;;;;5015923;27;89119;-36
2023/07/08 07:16:30;;;;;;;8.07;7.28;;;22.90;99.90;;;;;;5018081;27;90644;-32
2023/07/08 07:18:55;;;;;;;7.50;6.80;;;23.00;99.90;;;;;;5016028;28;91152;-37
2023/07/08 07:21:21;;;;;;;13.70;7.20;;;23.10;99.90;;;;;;5017234;28;90479;-34
2023/07/08 07:23:47;;;;;;;6.72;6.10;;;23.30;99.90;;;;;;5016097;27;89422;-38
2023/07/08 07:26:13;;;;;;;11.35;7.50;;;23.30;99.90;;;;;;5014853;28;90434;-35
2023/07/08 07:28:39;;;;;;;8.48;7.30;;;23.30;99.90;;;;;;5015545;27;91139;-34
2023/07/08 07:31:07;;;;;;;10.10;7.97;;;23.50;99.90;;;;;;5015105;27;89577;-33
2023/07/08 07:33:33;;;;;;;9.80;7.32;;;23.50;99.90;;;;;;5012864;28;90532;-33
2023/07/08 07:35:58;;;;;;;8.25;7.45;;;23.60;99.90;;;;;;5013578;28;90376;-35
2023/07/08 07:38:28;;;;;;;8.00;7.20;;;23.60;99.90;;;;;;5012383;27;89826;-35
2023/07/08 07:40:55;;;;;;;8.10;7.28;;;23.90;99.90;;;;;;5015435;28;89005;-36
2023/07/08 07:43:21;;;;;;;6.97;6.28;;;23.90;99.90;;;;;;5012784;27;88714;-33
2023/07/08 07:45:51;;;;;;;7.35;6.63;;;24.00;99.90;;;;;;5014901;28;90358;-36
2023/07/08 07:48:17;;;;;;;10.23;6.97;;;24.30;99.90;;;;;;5010260;28;89308;-36
2023/07/08 08:03:39;;;;;;;7.30;6.07;;;25.10;91.80;;;;;;5008869;28;88892;-38
2023/07/08 08:06:05;;;;;;;11.05;6.00;;;25.10;90.30;;;;;;4993498;28;87557;-44
2023/07/08 08:08:30;;;;;;;5.75;5.20;;;25.00;88.90;;;;;;4993888;28;88354;-41
2023/07/08 08:10:56;;;;;;;14.48;8.68;;;25.20;86.70;;;;;;4992950;28;90393;-41
2023/07/08 08:13:22;;;;;;;22.15;8.50;;;25.10;90.30;;;;;;4993485;28;89458;-46
2023/07/08 08:15:48;;;;;;;18.75;8.30;;;25.60;89.70;;;;;;4992544;28;89698;-44
2023/07/08 08:18:13;;;;;;;92.20;17.30;;;25.60;89.30;;;;;;4993738;28;89287;-42
2023/07/08 08:20:40;;;;;;;7.45;6.60;;;25.70;86.30;;;;;;4991490;28;89140;-46
2023/07/08 08:23:06;;;;;;;6.83;6.30;;;25.70;83.60;;;;;;4993744;28;90997;-47
2023/07/08 08:25:32;;;;;;;6.68;6.07;;;25.90;82.40;;;;;;4993462;28;88238;-42
2023/07/08 08:27:58;;;;;;;6.60;5.95;;;25.90;81.30;;;;;;4994110;28;89001;-41
2023/07/08 08:30:23;;;;;;;6.30;5.80;;;26.00;82.10;;;;;;4991113;28;91213;-49
2023/07/08 08:32:49;;;;;;;5.53;5.03;;;26.10;80.20;;;;;;4993194;28;89765;-44
2023/07/08 08:35:15;;;;;;;10.43;6.30;;;26.00;78.30;;;;;;4990790;28;89344;-44
2023/07/08 08:37:41;;;;;;;7.57;5.70;;;26.30;77.00;;;;;;4992735;28;89274;-47
2023/07/08 08:40:11;;;;;;;6.63;6.00;;;26.30;75.80;;;;;;4991035;28;90000;-45
2023/07/08 08:42:46;;;;;;;6.82;6.22;;;26.40;76.50;;;;;;4992190;28;89503;-46
2023/07/08 08:45:18;;;;;;;6.38;5.80;;;26.50;76.00;;;;;;4990116;28;87802;-43
2023/07/08 08:47:47;;;;;;;5.97;5.53;;;26.80;77.30;;;;;;4992196;28;88942;-47
2023/07/08 08:50:25;;;;;;;6.72;6.15;;;27.00;79.00;;;;;;4991996;28;89210;-45
2023/07/08 08:52:54;;;;;;;10.77;5.22;;;27.10;76.10;;;;;;4990767;28;89830;-42
2023/07/08 08:55:20;;;;;;;6.30;5.30;;;27.30;77.20;;;;;;5025330;27;89250;-46
2023/07/08 08:58:24;;;;;;;4.97;4.57;;;27.50;75.10;;;;;;4993204;28;89440;-48
2023/07/08 09:01:11;;;;;;;9.18;6.30;;;27.50;73.60;;;;;;4993615;28;91313;-46
2023/07/08 09:03:37;;;;;;;;;;;27.70;73.20;;;;;;4993598;28;90820;-44
2023/07/08 09:06:20;;;;;;;7.95;5.65;;;27.50;72.00;;;;;;4994801;28;88712;-45
2023/07/08 09:08:46;;;;;;;10.80;7.38;;;27.40;72.50;;;;;;4993594;28;90950;-42
2023/07/08 09:11:34;;;;;;;8.43;7.63;;;27.50;71.80;;;;;;4989212;28;89838;-47
2023/07/08 09:14:00;;;;;;;;;;;27.50;71.30;;;;;;4979251;28;89607;-45
2023/07/08 09:16:25;;;;;;;10.40;6.70;;;27.50;73.40;;;;;;4966378;28;89670;-44
2023/07/08 09:18:51;;;;;;;7.78;6.25;;;27.40;71.90;;;;;;4972971;28;87882;-44
2023/07/08 09:21:24;;;;;;;6.53;5.93;;;27.70;73.20;;;;;;4960123;28;89659;-45
2023/07/08 09:23:58;;;;;;;6.35;5.85;;;27.40;71.90;;;;;;4972595;28;89786;-42
2023/07/08 09:26:25;;;;;;;7.68;6.53;;;27.60;72.50;;;;;;4971356;28;88543;-45
2023/07/08 09:28:51;;;;;;;;;;;27.70;70.80;;;;;;4970743;28;87984;-45
2023/07/08 09:31:28;;;;;;;7.20;6.70;;;27.70;69.90;;;;;;4970007;28;90086;-46
2023/07/08 09:34:09;;;;;;;84.25;16.13;;;27.90;71.50;;;;;;4968739;28;89634;-43
2023/07/08 09:36:41;;;;;;;6.90;6.40;;;28.00;71.90;;;;;;4967573;28;88148;-48
2023/07/08 09:39:11;;;;;;;8.45;6.97;;;27.90;68.60;;;;;;4971992;28;87998;-48
2023/07/08 09:41:37;;;;;;;12.52;7.05;;;27.90;71.90;;;;;;4973574;28;90170;-44
2023/07/08 09:44:05;;;;;;;10.30;5.82;;;28.00;69.80;;;;;;4977097;28;89606;-45
2023/07/08 09:46:37;;;;;;;5.72;5.32;;;28.20;72.60;;;;;;4973688;28;88695;-42
2023/07/08 09:49:17;;;;;;;5.68;5.18;;;28.30;72.50;;;;;;4974202;28;89279;-43
2023/07/08 09:51:42;;;;;;;5.70;5.28;;;28.30;71.50;;;;;;4970345;28;89586;-46
2023/07/08 09:54:08;;;;;;;5.75;5.25;;;28.40;69.60;;;;;;4976436;28;88732;-43
2023/07/08 09:56:35;;;;;;;6.20;5.70;;;28.50;68.40;;;;;;4966456;28;88353;-44
2023/07/08 09:59:01;;;;;;;7.47;6.77;;;28.40;68.90;;;;;;4970029;28;89202;-44
2023/07/08 10:01:28;;;;;;;8.60;6.03;;;28.60;67.40;;;;;;4958181;28;90184;-47
2023/07/08 10:03:59;;;;;;;8.00;6.07;;;28.60;67.50;;;;;;4959474;28;88698;-45
2023/07/08 10:06:32;;;;;;;9.10;6.43;;;28.70;68.30;;;;;;4964017;28;87862;-47
2023/07/08 10:09:03;;;;;;;5.65;5.22;;;28.80;65.40;;;;;;4978810;28;90024;-45
2023/07/08 10:11:38;;;;;;;5.85;5.45;;;28.70;67.00;;;;;;4978049;28;90536;-42
2023/07/08 10:14:11;;;;;;;7.85;6.72;;;29.00;69.20;;;;;;4976139;28;90596;-45
2023/07/08 10:16:37;;;;;;;9.50;6.22;;;28.90;69.40;;;;;;4959965;28;88489;-45
2023/07/08 10:19:12;;;;;;;6.32;5.45;;;29.00;69.70;;;;;;4974861;28;88696;-39
2023/07/08 10:22:04;;;;;;;7.03;6.43;;;29.10;67.30;;;;;;4978529;28;90975;-45
2023/07/08 10:24:48;;;;;;;6.35;5.57;;;29.10;66.40;;;;;;4966175;28;91301;-41
2023/07/08 10:27:39;;;;;;;5.70;5.30;;;29.20;68.30;;;;;;4977630;28;87994;-42
2023/07/08 10:30:25;;;;;;;6.25;5.75;;;29.20;65.70;;;;;;4978534;28;89715;-41
2023/07/08 10:33:14;;;;;;;6.40;5.82;;;29.20;65.80;;;;;;4968450;28;90353;-42
2023/07/08 10:35:54;;;;;;;6.65;6.05;;;29.20;64.80;;;;;;4977844;28;88490;-48
2023/07/08 10:38:32;;;;;;;6.07;5.47;;;29.10;65.60;;;;;;4978842;28;90086;-43
2023/07/08 10:41:11;;;;;;;6.53;5.78;;;29.20;65.00;;;;;;4979195;28;90383;-44
2023/07/08 10:43:46;;;;;;;6.20;5.70;;;29.10;67.10;;;;;;4977867;28;90807;-47
2023/07/08 10:47:08;;;;;;;6.10;5.45;;;29.30;66.60;;;;;;4977475;28;89072;-44
2023/07/08 10:49:51;;;;;;;6.25;5.75;;;29.20;64.30;;;;;;4930836;28;88659;-44
2023/07/08 10:52:38;;;;;;;6.95;6.45;;;29.20;64.40;;;;;;4974156;28;89974;-44
2023/07/08 10:55:28;;;;;;;14.80;5.28;;;29.00;64.00;;;;;;4973711;28;88624;-43
2023/07/08 10:58:02;;;;;;;10.88;6.25;;;29.30;64.90;;;;;;4974213;28;88434;-49
2023/07/08 11:00:41;;;;;;;6.30;5.72;;;29.30;65.10;;;;;;4967372;28;89762;-45
2023/07/08 11:04:01;;;;;;;6.45;5.80;;;29.40;64.90;;;;;;4973079;28;90374;-44
2023/07/08 11:06:46;;;;;;;6.25;5.75;;;29.60;64.80;;;;;;4951260;28;89707;-45
2023/07/08 11:09:17;;;;;;;7.68;6.95;;;29.60;63.20;;;;;;4961193;28;90243;-41
2023/07/08 11:11:50;;;;;;;6.35;5.85;;;29.40;61.60;;;;;;4978535;28;88290;-44
2023/07/08 11:14:24;;;;;;;6.13;5.63;;;29.50;65.20;;;;;;4978211;28;89148;-46
2023/07/08 11:17:29;;;;;;;5.35;4.88;;;29.50;60.90;;;;;;4977287;28;90320;-46
2023/07/08 11:20:02;;;;;;;7.22;6.63;;;29.60;64.00;;;;;;4967237;28;90218;-44
2023/07/08 11:22:31;;;;;;;6.03;5.53;;;29.80;61.50;;;;;;4978257;28;88998;-45
2023/07/08 11:24:59;;;;;;;6.88;6.00;;;29.80;62.40;;;;;;4978012;28;88740;-46
2023/07/08 11:27:27;;;;;;;6.68;5.28;;;30.00;63.20;;;;;;4976892;28;91036;-46
2023/07/08 11:30:13;;;;;;;6.20;5.65;;;30.10;62.70;;;;;;4977559;28;89462;-46
2023/07/08 11:32:39;;;;;;;6.50;4.85;;;30.20;61.40;;;;;;5010629;28;88240;-45
2023/07/08 11:35:13;;;;;;;4.13;3.83;;;30.20;59.80;;;;;;4978826;28;89953;-46
2023/07/08 11:37:39;;;;;;;8.23;5.30;;;30.30;58.10;;;;;;4976985;28;90556;-48
2023/07/08 11:40:05;;;;;;;6.25;5.63;;;30.20;61.00;;;;;;4977016;28;89548;-43
2023/07/08 11:42:41;;;;;;;6.68;5.30;;;30.20;59.70;;;;;;4977706;28;88416;-43
2023/07/08 11:45:29;;;;;;;8.90;5.73;;;30.30;59.80;;;;;;4968576;28;88465;-40
2023/07/08 11:48:05;;;;;;;6.50;5.90;;;30.40;59.50;;;;;;4968120;28;90893;-44
2023/07/08 11:50:40;;;;;;;8.38;5.43;;;30.30;57.50;;;;;;4976087;28;88705;-45
2023/07/08 11:53:12;;;;;;;6.55;5.85;;;30.30;58.80;;;;;;4977189;28;90546;-48
2023/07/08 11:55:55;;;;;;;6.30;5.70;;;30.30;58.20;;;;;;4977500;28;89433;-45
2023/07/08 11:58:31;;;;;;;6.53;4.93;;;30.40;59.10;;;;;;4976304;28;90648;-47
2023/07/08 12:01:04;;;;;;;6.50;5.93;;;30.40;58.20;;;;;;4966336;28;89896;-43
2023/07/08 12:03:49;;;;;;;5.88;5.38;;;30.40;59.10;;;;;;4958368;28;89084;-43
2023/07/08 12:06:27;;;;;;;6.18;5.68;;;30.50;57.30;;;;;;4959282;28;89968;-41
2023/07/08 12:08:54;;;;;;;6.68;5.95;;;30.40;59.10;;;;;;4969826;28;90607;-46
2023/07/08 12:11:27;;;;;;;6.85;6.18;;;30.50;60.00;;;;;;4964132;28;90195;-45
2023/07/08 12:13:55;;;;;;;9.55;6.65;;;30.50;57.60;;;;;;4965923;28;87573;-44
2023/07/08 12:16:21;;;;;;;6.75;6.03;;;30.50;59.10;;;;;;4970612;28;89444;-45
2023/07/08 12:18:48;;;;;;;5.72;5.22;;;30.50;58.10;;;;;;4958884;28;90013;-47
2023/07/08 12:21:15;;;;;;;7.40;5.30;;;30.50;57.20;;;;;;4958690;28;89851;-43
2023/07/08 12:23:47;;;;;;;7.00;6.43;;;30.50;58.30;;;;;;4959273;28;88387;-45
2023/07/08 12:26:14;;;;;;;7.30;6.30;;;30.60;58.70;;;;;;4959041;28;88835;-43
2023/07/08 12:28:41;;;;;;;7.32;5.88;;;30.60;59.60;;;;;;4960196;28;90072;-41
2023/07/08 12:31:18;;;;;;;6.60;5.93;;;30.60;58.40;;;;;;4966567;28;89731;-46
2023/07/08 12:33:44;;;;;;;8.32;6.53;;;30.70;57.70;;;;;;4970797;28;90028;-47
2023/07/08 12:36:20;;;;;;;6.68;5.80;;;30.70;58.40;;;;;;4958871;28;90669;-42
2023/07/08 12:38:49;;;;;;;7.40;6.68;;;30.70;57.70;;;;;;4971003;28;89885;-42
2023/07/08 12:41:18;;;;;;;7.40;6.70;;;30.80;59.20;;;;;;4958063;28;89337;-45
2023/07/08 12:43:45;;;;;;;11.25;7.28;;;30.60;56.60;;;;;;4958912;28;88467;-41
2023/07/08 12:46:12;;;;;;;7.35;6.68;;;30.70;57.90;;;;;;4959325;28;88558;-44
2023/07/08 12:48:41;;;;;;;7.57;6.83;;;30.80;59.10;;;;;;4958935;28;92272;-45
2023/07/08 12:51:12;;;;;;;9.70;6.43;;;30.80;58.00;;;;;;4962946;28;89546;-45
2023/07/08 12:53:37;;;;;;;7.43;6.72;;;30.90;55.60;;;;;;4967531;28;88768;-45
2023/07/08 12:56:03;;;;;;;7.78;6.97;;;30.90;56.80;;;;;;4967383;28;89847;-49
2023/07/08 12:58:33;;;;;;;6.95;6.22;;;30.90;57.90;;;;;;4965024;28;90303;-47
2023/07/08 13:01:03;;;;;;;7.32;6.63;;;30.90;57.20;;;;;;4981250;28;89622;-48
2023/07/08 13:03:30;;;;;;;11.13;6.78;;;30.80;57.50;;;;;;4966608;28;87923;-45
2023/07/08 13:05:58;;;;;;;6.72;6.10;;;31.00;57.90;;;;;;4978742;28;88856;-45